createdAt,value
2022-08-20T00:00:22.877Z,18.40
2022-08-20T00:02:52.683Z,18.38
2022-08-20T00:05:24.609Z,18.37
2022-08-20T00:07:52.633Z,18.36
2022-08-20T00:10:20.895Z,18.37
2022-08-20T00:12:50.093Z,18.36
2022-08-20T00:15:21.712Z,18.35
2022-08-20T00:17:50.582Z,18.34
2022-08-20T00:20:19.977Z,18.33
2022-08-20T00:22:48.104Z,18.34
2022-08-20T00:25:16.513Z,18.35
2022-08-20T00:27:44.441Z,18.35
2022-08-20T00:30:14.136Z,18.34
2022-08-20T00:32:48.277Z,18.35
2022-08-20T00:35:16.868Z,18.33
2022-08-20T00:37:44.880Z,18.34
2022-08-20T00:40:22.652Z,18.33
2022-08-20T00:42:55.357Z,18.30
2022-08-20T00:45:22.980Z,18.27
2022-08-20T00:47:51.988Z,18.21
2022-08-20T00:50:24.325Z,18.17
2022-08-20T00:52:53.830Z,18.13
2022-08-20T00:55:29.630Z,18.10
2022-08-20T00:58:03.893Z,18.08
2022-08-20T01:00:34.148Z,18.06
2022-08-20T01:03:03.757Z,18.03
2022-08-20T01:05:31.365Z,17.99
2022-08-20T01:07:59.362Z,17.98
2022-08-20T01:10:30.271Z,17.95
2022-08-20T01:13:00.236Z,17.96
2022-08-20T01:15:31.721Z,17.94
2022-08-20T01:18:02.005Z,17.93
2022-08-20T01:20:34.716Z,17.93
2022-08-20T01:23:26.608Z,17.92
2022-08-20T01:26:00.274Z,17.91
2022-08-20T01:28:33.577Z,17.89
2022-08-20T01:31:01.153Z,17.88
2022-08-20T01:33:28.919Z,17.86
2022-08-20T01:35:56.641Z,17.86
2022-08-20T01:38:24.609Z,17.89
2022-08-20T01:41:08.552Z,17.93
2022-08-20T01:43:37.092Z,17.96
2022-08-20T01:46:06.020Z,18.02
2022-08-20T01:48:33.605Z,18.06
2022-08-20T01:51:07.755Z,18.09
2022-08-20T01:53:38.445Z,18.03
2022-08-20T01:56:10.125Z,18.02
2022-08-20T01:58:41.257Z,18.00
2022-08-20T02:01:09.465Z,17.99
2022-08-20T02:03:40.747Z,17.98
2022-08-20T02:06:11.668Z,17.95
2022-08-20T02:08:39.296Z,17.96
2022-08-20T02:11:08.889Z,17.95
2022-08-20T02:13:36.849Z,17.95
2022-08-20T02:16:05.989Z,17.95
2022-08-20T02:18:33.653Z,17.95
2022-08-20T02:21:01.495Z,17.96
2022-08-20T02:23:29.150Z,17.97
2022-08-20T02:25:56.833Z,17.95
2022-08-20T02:28:25.733Z,17.94
2022-08-20T02:30:55.240Z,17.92
2022-08-20T02:33:24.614Z,17.90
2022-08-20T02:35:53.725Z,17.86
2022-08-20T02:38:21.432Z,17.83
2022-08-20T02:40:49.917Z,17.82
2022-08-20T02:43:20.072Z,17.83
2022-08-20T02:45:49.006Z,17.81
2022-08-20T02:48:22.739Z,17.81
2022-08-20T02:50:53.221Z,17.81
2022-08-20T02:53:21.421Z,17.79
2022-08-20T02:55:48.996Z,17.80
2022-08-20T02:58:16.872Z,17.81
2022-08-20T03:00:44.836Z,17.82
2022-08-20T03:03:14.091Z,17.82
2022-08-20T03:05:43.921Z,17.84
2022-08-20T03:08:13.434Z,17.85
2022-08-20T03:10:42.751Z,17.86
2022-08-20T03:13:12.503Z,17.85
2022-08-20T03:15:43.005Z,17.86
2022-08-20T03:18:11.422Z,17.84
2022-08-20T03:20:42.057Z,17.85
2022-08-20T03:23:09.773Z,17.86
2022-08-20T03:25:37.469Z,17.89
2022-08-20T03:28:05.728Z,17.90
2022-08-20T03:30:33.600Z,17.92
2022-08-20T03:33:01.564Z,17.95
2022-08-20T03:35:32.949Z,17.97
2022-08-20T03:38:02.342Z,18.00
2022-08-20T03:40:32.639Z,18.04
2022-08-20T03:43:01.152Z,18.06
2022-08-20T03:45:29.787Z,18.07
2022-08-20T03:47:58.668Z,18.08
2022-08-20T03:50:29.821Z,18.08
2022-08-20T03:52:59.493Z,18.09
2022-08-20T03:55:30.950Z,18.08
2022-08-20T03:58:02.924Z,18.09
2022-08-20T04:00:34.684Z,18.07
2022-08-20T04:03:02.316Z,18.06
2022-08-20T04:05:32.782Z,18.06
2022-08-20T04:08:03.414Z,18.06
2022-08-20T04:10:32.937Z,18.05
2022-08-20T04:13:00.613Z,18.05
2022-08-20T04:15:29.245Z,18.04
2022-08-20T04:17:56.950Z,18.02
2022-08-20T04:20:26.116Z,18.00
2022-08-20T04:22:59.157Z,17.98
2022-08-20T04:25:28.429Z,17.98
2022-08-20T04:28:00.174Z,17.94
2022-08-20T04:30:30.572Z,17.92
2022-08-20T04:32:59.497Z,17.90
2022-08-20T04:35:27.506Z,17.88
2022-08-20T04:38:06.404Z,17.90
2022-08-20T04:40:52.532Z,17.89
2022-08-20T04:43:23.054Z,17.89
2022-08-20T04:45:51.902Z,17.92
2022-08-20T04:48:20.472Z,17.95
2022-08-20T04:50:48.341Z,18.00
2022-08-20T04:53:22.711Z,18.04
2022-08-20T04:55:54.437Z,18.08
2022-08-20T04:58:27.272Z,18.13
2022-08-20T05:01:01.184Z,18.19
2022-08-20T05:03:29.691Z,18.23
2022-08-20T05:05:57.900Z,18.30
2022-08-20T05:08:26.808Z,18.40
2022-08-20T05:11:06.592Z,18.51
2022-08-20T05:13:45.134Z,18.64
2022-08-20T05:16:15.105Z,18.85
2022-08-20T05:18:43.231Z,19.07
2022-08-20T05:21:10.873Z,19.29
2022-08-20T05:23:43.174Z,19.51
2022-08-20T05:26:11.970Z,19.65
2022-08-20T05:28:57.087Z,19.80
2022-08-20T05:31:32.692Z,20.05
2022-08-20T05:34:01.236Z,20.61
2022-08-20T05:36:28.890Z,21.55
2022-08-20T05:38:56.470Z,22.61
2022-08-20T05:41:29.358Z,23.41
2022-08-20T05:43:59.389Z,24.19
2022-08-20T05:46:28.369Z,24.41
2022-08-20T05:48:56.139Z,24.59
2022-08-20T05:51:27.608Z,24.64
2022-08-20T05:53:55.300Z,24.76
2022-08-20T05:56:27.130Z,24.94
2022-08-20T05:58:54.970Z,25.13
2022-08-20T06:01:22.733Z,25.27
2022-08-20T06:04:09.284Z,25.49
2022-08-20T06:06:45.319Z,26.56
2022-08-20T06:09:15.043Z,27.35
2022-08-20T06:11:42.614Z,27.85
2022-08-20T06:14:10.241Z,28.07
2022-08-20T06:16:37.925Z,28.15
2022-08-20T06:19:11.295Z,28.53
2022-08-20T06:21:39.759Z,29.00
2022-08-20T06:24:07.872Z,28.64
2022-08-20T06:26:36.315Z,28.73
2022-08-20T06:29:05.878Z,28.70
2022-08-20T06:31:34.908Z,28.89
2022-08-20T06:34:02.772Z,29.20
2022-08-20T06:36:31.673Z,29.46
2022-08-20T06:38:59.255Z,29.20
2022-08-20T06:41:36.376Z,29.66
2022-08-20T06:44:05.278Z,30.11
2022-08-20T06:46:33.043Z,30.09
2022-08-20T06:49:00.818Z,30.03
2022-08-20T06:51:29.250Z,30.15
2022-08-20T06:53:58.713Z,30.54
2022-08-20T06:56:26.736Z,30.77
2022-08-20T06:58:54.281Z,30.99
2022-08-20T07:01:21.879Z,30.22
2022-08-20T07:03:55.755Z,30.15
2022-08-20T07:06:25.285Z,30.01
2022-08-20T07:08:53.052Z,30.05
2022-08-20T07:11:27.216Z,30.17
2022-08-20T07:13:56.465Z,29.91
2022-08-20T07:16:24.077Z,30.22
2022-08-20T07:18:51.773Z,30.16
2022-08-20T07:21:19.538Z,29.40
2022-08-20T07:23:49.341Z,28.61
2022-08-20T07:26:17.040Z,27.62
2022-08-20T07:28:46.353Z,28.14
2022-08-20T07:31:31.642Z,27.67
2022-08-20T07:34:02.788Z,27.86
2022-08-20T07:36:31.051Z,27.17
2022-08-20T07:38:59.761Z,26.55
2022-08-20T07:41:34.218Z,25.66
2022-08-20T07:44:03.404Z,25.78
2022-08-20T07:46:31.651Z,25.46
2022-08-20T07:48:59.873Z,25.15
2022-08-20T07:51:28.529Z,25.25
2022-08-20T07:53:58.118Z,25.47
2022-08-20T07:56:26.563Z,25.81
2022-08-20T07:58:59.227Z,25.66
2022-08-20T08:01:31.648Z,25.41
2022-08-20T08:04:00.702Z,25.18
2022-08-20T08:06:31.375Z,25.30
2022-08-20T08:09:03.937Z,25.52
2022-08-20T08:11:34.479Z,26.18
2022-08-20T08:14:03.478Z,26.66
2022-08-20T08:16:32.798Z,26.91
2022-08-20T08:19:01.900Z,27.32
2022-08-20T08:21:30.140Z,27.77
2022-08-20T08:23:58.228Z,27.44
2022-08-20T08:26:26.261Z,27.51
2022-08-20T08:28:53.848Z,27.44
2022-08-20T08:31:21.425Z,27.27
2022-08-20T08:33:50.351Z,27.36
2022-08-20T08:36:18.410Z,27.28
2022-08-20T08:38:47.074Z,27.21
2022-08-20T08:41:18.707Z,27.31
2022-08-20T08:43:48.793Z,27.24
2022-08-20T08:46:22.608Z,27.11
2022-08-20T08:48:55.633Z,26.44
2022-08-20T08:51:29.266Z,25.75
2022-08-20T08:53:59.589Z,25.97
2022-08-20T08:56:30.665Z,26.22
2022-08-20T08:59:02.763Z,26.25
2022-08-20T09:01:54.416Z,26.07
2022-08-20T09:04:23.696Z,25.39
2022-08-20T09:06:53.425Z,25.26
2022-08-20T09:09:25.650Z,25.70
2022-08-20T09:11:56.146Z,26.01
2022-08-20T09:14:25.318Z,26.36
2022-08-20T09:16:53.717Z,26.68
2022-08-20T09:19:22.811Z,26.66
2022-08-20T09:21:50.543Z,26.74
2022-08-20T09:24:18.393Z,26.85
2022-08-20T09:26:46.089Z,26.81
2022-08-20T09:29:13.856Z,26.88
2022-08-20T09:31:42.634Z,26.78
2022-08-20T09:34:10.417Z,26.70
2022-08-20T09:36:39.460Z,26.67
2022-08-20T09:39:07.059Z,27.00
2022-08-20T09:41:34.837Z,26.83
2022-08-20T09:44:02.900Z,26.74
2022-08-20T09:46:30.493Z,27.10
2022-08-20T09:48:58.408Z,27.12
2022-08-20T09:51:26.041Z,27.34
2022-08-20T09:53:55.877Z,27.43
2022-08-20T09:56:25.191Z,27.44
2022-08-20T09:58:56.523Z,27.56
2022-08-20T10:01:26.670Z,27.23
2022-08-20T10:03:54.353Z,27.28
2022-08-20T10:06:22.091Z,27.24
2022-08-20T10:08:50.491Z,27.23
2022-08-20T10:11:19.852Z,27.27
2022-08-20T10:13:48.213Z,27.35
2022-08-20T10:16:15.821Z,27.40
2022-08-20T10:18:43.410Z,27.33
2022-08-20T10:21:12.405Z,27.46
2022-08-20T10:23:40.086Z,26.87
2022-08-20T10:26:08.529Z,26.55
2022-08-20T10:28:37.896Z,26.61
2022-08-20T10:31:07.168Z,26.12
2022-08-20T10:33:35.756Z,26.36
2022-08-20T10:36:07.637Z,26.47
2022-08-20T10:38:35.225Z,26.44
2022-08-20T10:41:02.812Z,26.02
2022-08-20T10:43:30.563Z,26.04
2022-08-20T10:45:59.557Z,26.18
2022-08-20T10:48:27.596Z,25.77
2022-08-20T10:50:55.265Z,25.60
2022-08-20T10:53:22.905Z,25.77
2022-08-20T10:55:50.520Z,26.10
2022-08-20T10:58:18.986Z,25.98
2022-08-20T11:00:50.801Z,26.26
2022-08-20T11:03:20.120Z,26.31
2022-08-20T11:05:47.768Z,26.45
2022-08-20T11:08:15.395Z,26.37
2022-08-20T11:11:01.589Z,26.37
2022-08-20T11:13:29.185Z,26.26
2022-08-20T11:15:56.821Z,26.07
2022-08-20T11:18:25.906Z,26.29
2022-08-20T11:20:53.760Z,26.07
2022-08-20T11:23:21.340Z,25.75
2022-08-20T11:25:49.676Z,25.72
2022-08-20T11:28:17.343Z,25.79
2022-08-20T11:30:59.011Z,25.71
2022-08-20T11:33:28.080Z,25.18
2022-08-20T11:35:55.649Z,24.84
2022-08-20T11:38:23.266Z,25.20
2022-08-20T11:40:50.872Z,25.39
2022-08-20T11:43:18.696Z,25.41
2022-08-20T11:45:48.534Z,25.61
2022-08-20T11:48:16.771Z,25.74
2022-08-20T11:50:46.873Z,25.67
2022-08-20T11:53:14.922Z,26.04
2022-08-20T11:55:43.243Z,26.16
2022-08-20T11:58:11.503Z,26.16
2022-08-20T12:00:39.316Z,26.12
2022-08-20T12:03:10.265Z,26.20
2022-08-20T12:05:39.553Z,26.37
2022-08-20T12:08:09.533Z,26.53
2022-08-20T12:10:37.908Z,27.02
2022-08-20T12:13:06.220Z,26.77
2022-08-20T12:15:33.980Z,26.76
2022-08-20T12:18:02.126Z,27.16
2022-08-20T12:20:29.777Z,27.03
2022-08-20T12:22:58.901Z,27.29
2022-08-20T12:25:28.019Z,27.74
2022-08-20T12:27:55.695Z,27.27
2022-08-20T12:30:25.543Z,26.27
2022-08-20T12:32:53.520Z,26.28
2022-08-20T12:35:21.325Z,25.78
2022-08-20T12:37:48.981Z,25.54
2022-08-20T12:40:30.541Z,25.84
2022-08-20T12:43:01.840Z,26.07
2022-08-20T12:45:29.845Z,26.43
2022-08-20T12:48:03.035Z,26.60
2022-08-20T12:50:31.847Z,26.73
2022-08-20T12:53:00.445Z,26.46
2022-08-20T12:55:28.853Z,26.23
2022-08-20T12:57:59.238Z,26.02
2022-08-20T13:00:30.565Z,25.56
2022-08-20T13:03:01.531Z,25.86
2022-08-20T13:05:30.134Z,26.49
2022-08-20T13:07:58.458Z,26.73
2022-08-20T13:10:29.513Z,26.00
2022-08-20T13:12:57.907Z,25.66
2022-08-20T13:15:26.572Z,25.08
2022-08-20T13:17:57.636Z,25.05
2022-08-20T13:20:34.076Z,25.74
2022-08-20T13:23:02.840Z,25.96
2022-08-20T13:25:30.464Z,26.19
2022-08-20T13:27:59.157Z,25.67
2022-08-20T13:30:27.049Z,25.39
2022-08-20T13:32:56.360Z,25.09
2022-08-20T13:35:24.174Z,25.47
2022-08-20T13:37:51.891Z,25.77
2022-08-20T13:40:20.015Z,26.23
2022-08-20T13:42:47.673Z,26.26
2022-08-20T13:45:15.724Z,26.18
2022-08-20T13:47:44.409Z,26.20
2022-08-20T13:50:16.112Z,25.73
2022-08-20T13:52:44.470Z,25.98
2022-08-20T13:55:16.941Z,25.67
2022-08-20T13:57:45.396Z,25.60
2022-08-20T14:00:16.686Z,25.61
2022-08-20T14:02:45.271Z,25.18
2022-08-20T14:05:18.417Z,25.15
2022-08-20T14:07:48.019Z,25.11
2022-08-20T14:10:18.447Z,24.44
2022-08-20T14:12:48.167Z,23.87
2022-08-20T14:15:15.922Z,23.67
2022-08-20T14:17:50.287Z,24.11
2022-08-20T14:20:22.140Z,24.41
2022-08-20T14:22:49.756Z,24.37
2022-08-20T14:25:19.701Z,24.72
2022-08-20T14:27:47.378Z,24.50
2022-08-20T14:30:22.452Z,24.26
2022-08-20T14:32:50.152Z,24.29
2022-08-20T14:35:19.356Z,23.98
2022-08-20T14:37:49.416Z,23.91
2022-08-20T14:40:18.565Z,23.80
2022-08-20T14:42:51.630Z,23.64
2022-08-20T14:45:23.214Z,23.66
2022-08-20T14:47:54.175Z,23.98
2022-08-20T14:50:26.684Z,23.93
2022-08-20T14:52:54.970Z,23.78
2022-08-20T14:55:24.705Z,23.85
2022-08-20T14:57:52.423Z,23.64
2022-08-20T15:00:23.245Z,23.84
2022-08-20T15:02:50.913Z,23.89
2022-08-20T15:05:18.757Z,24.12
2022-08-20T15:07:51.789Z,24.10
2022-08-20T15:10:25.698Z,24.20
2022-08-20T15:12:53.364Z,24.24
2022-08-20T15:15:22.381Z,24.15
2022-08-20T15:17:53.256Z,24.19
2022-08-20T15:20:23.648Z,24.12
2022-08-20T15:22:52.669Z,24.21
2022-08-20T15:25:23.326Z,24.38
2022-08-20T15:27:51.553Z,24.27
2022-08-20T15:30:21.615Z,24.19
2022-08-20T15:32:54.587Z,24.06
2022-08-20T15:35:25.713Z,24.30
2022-08-20T15:37:56.927Z,24.46
2022-08-20T15:40:28.543Z,23.97
2022-08-20T15:42:56.481Z,23.60
2022-08-20T15:45:24.176Z,23.77
2022-08-20T15:47:55.374Z,23.92
2022-08-20T15:50:45.280Z,24.14
2022-08-20T15:53:18.769Z,23.78
2022-08-20T15:55:56.993Z,23.56
2022-08-20T15:58:32.426Z,23.86
2022-08-20T16:01:24.611Z,23.97
2022-08-20T16:04:10.033Z,23.98
2022-08-20T16:06:37.889Z,23.90
2022-08-20T16:09:28.772Z,23.87
2022-08-20T16:12:03.417Z,23.74
2022-08-20T16:14:37.661Z,23.52
2022-08-20T16:17:09.767Z,23.39
2022-08-20T16:19:51.249Z,22.92
2022-08-20T16:22:20.244Z,22.98
2022-08-20T16:24:49.797Z,22.95
2022-08-20T16:27:28.629Z,22.73
2022-08-20T16:30:02.603Z,22.65
2022-08-20T16:32:38.507Z,22.42
2022-08-20T16:35:26.288Z,22.60
2022-08-20T16:38:03.513Z,22.44
2022-08-20T16:40:39.132Z,22.14
2022-08-20T16:43:09.881Z,21.88
2022-08-20T16:45:50.132Z,21.69
2022-08-20T16:48:19.830Z,21.67
2022-08-20T16:51:02.528Z,21.63
2022-08-20T16:53:30.237Z,21.73
2022-08-20T16:55:59.180Z,21.68
2022-08-20T16:58:26.837Z,21.74
2022-08-20T17:01:07.344Z,21.85
2022-08-20T17:03:39.673Z,21.94
2022-08-20T17:06:17.108Z,21.87
2022-08-20T17:08:49.897Z,22.04
2022-08-20T17:11:25.152Z,22.19
2022-08-20T17:14:07.958Z,22.25
2022-08-20T17:16:40.054Z,22.21
2022-08-20T17:19:11.968Z,22.19
2022-08-20T17:21:40.730Z,22.20
2022-08-20T17:24:16.877Z,21.94
2022-08-20T17:26:49.237Z,21.84
2022-08-20T17:29:20.103Z,21.93
2022-08-20T17:31:51.305Z,21.96
2022-08-20T17:34:21.784Z,21.94
2022-08-20T17:36:53.842Z,21.86
2022-08-20T17:39:24.609Z,21.78
2022-08-20T17:41:56.059Z,21.70
2022-08-20T17:44:29.104Z,21.67
2022-08-20T17:46:58.376Z,21.65
2022-08-20T17:49:35.188Z,21.52
2022-08-20T17:52:10.641Z,21.34
2022-08-20T17:54:42.278Z,21.27
2022-08-20T17:57:14.480Z,21.34
2022-08-20T17:59:59.973Z,21.18
2022-08-20T18:02:30.736Z,20.82
2022-08-20T18:04:58.354Z,20.72
2022-08-20T18:07:31.824Z,20.58
2022-08-20T18:10:03.489Z,20.55
2022-08-20T18:12:40.960Z,20.47
2022-08-20T18:15:13.701Z,20.31
2022-08-20T18:18:01.622Z,20.27
2022-08-20T18:20:49.440Z,20.18
2022-08-20T18:23:21.649Z,20.19
2022-08-20T18:25:53.934Z,20.08
2022-08-20T18:28:27.693Z,19.98
2022-08-20T18:30:58.352Z,19.97
2022-08-20T18:33:29.509Z,19.83
2022-08-20T18:36:11.993Z,19.79
2022-08-20T18:38:42.159Z,19.78
2022-08-20T18:41:14.257Z,19.76
2022-08-20T18:43:44.188Z,19.77
2022-08-20T18:46:23.634Z,19.71
2022-08-20T18:48:54.281Z,19.68
2022-08-20T18:51:30.936Z,19.60
2022-08-20T18:53:59.190Z,19.56
2022-08-20T18:56:40.257Z,19.48
2022-08-20T18:59:15.869Z,19.39
2022-08-20T19:01:48.530Z,19.30
2022-08-20T19:04:29.754Z,19.19
2022-08-20T19:07:01.536Z,19.12
2022-08-20T19:10:01.361Z,19.03
2022-08-20T19:13:03.210Z,18.93
2022-08-20T19:15:34.389Z,18.84
2022-08-20T19:18:07.972Z,18.78
2022-08-20T19:20:38.605Z,18.72
2022-08-20T19:23:08.924Z,18.65
2022-08-20T19:25:41.652Z,18.59
2022-08-20T19:28:20.321Z,18.53
2022-08-20T19:30:50.184Z,18.45
2022-08-20T19:33:27.513Z,18.41
2022-08-20T19:36:08.178Z,18.34
2022-08-20T19:38:36.001Z,18.28
2022-08-20T19:41:11.234Z,18.21
2022-08-20T19:43:43.824Z,18.16
2022-08-20T19:46:16.230Z,18.10
2022-08-20T19:48:53.789Z,18.03
2022-08-20T19:51:28.518Z,17.98
2022-08-20T19:53:56.121Z,17.93
2022-08-20T19:56:25.929Z,17.89
2022-08-20T19:59:01.661Z,17.85
2022-08-20T20:01:30.717Z,17.79
2022-08-20T20:04:00.965Z,17.77
2022-08-20T20:06:29.444Z,17.74
2022-08-20T20:08:59.970Z,17.72
2022-08-20T20:11:33.763Z,17.66
2022-08-20T20:14:03.789Z,17.62
2022-08-20T20:16:33.929Z,17.55
2022-08-20T20:19:25.195Z,17.49
2022-08-20T20:21:52.821Z,17.38
2022-08-20T20:24:25.329Z,17.32
2022-08-20T20:26:53.998Z,17.24
2022-08-20T20:29:28.151Z,17.17
2022-08-20T20:32:00.072Z,17.09
2022-08-20T20:34:30.034Z,17.03
2022-08-20T20:37:09.580Z,16.97
2022-08-20T20:39:41.521Z,16.93
2022-08-20T20:42:12.736Z,16.85
2022-08-20T20:44:43.192Z,16.80
2022-08-20T20:47:21.492Z,16.74
2022-08-20T20:49:52.607Z,16.67
2022-08-20T20:52:23.317Z,16.61
2022-08-20T20:54:52.748Z,16.53
2022-08-20T20:57:37.757Z,16.46
2022-08-20T21:00:11.347Z,16.41
2022-08-20T21:02:40.501Z,16.34
2022-08-20T21:05:08.597Z,16.29
2022-08-20T21:07:44.865Z,16.24
2022-08-20T21:10:19.564Z,16.17
2022-08-20T21:12:50.547Z,16.13
2022-08-20T21:15:21.150Z,16.10
2022-08-20T21:17:50.056Z,16.04
2022-08-20T21:20:17.999Z,16.00
2022-08-20T21:22:45.643Z,15.96
2022-08-20T21:25:13.533Z,15.92
2022-08-20T21:27:44.965Z,15.90
2022-08-20T21:30:13.704Z,15.87
2022-08-20T21:32:41.322Z,15.83
2022-08-20T21:35:11.135Z,15.80
2022-08-20T21:37:38.889Z,15.76
2022-08-20T21:40:08.831Z,15.73
2022-08-20T21:42:37.240Z,15.69
2022-08-20T21:45:07.149Z,15.64
2022-08-20T21:47:34.748Z,15.60
2022-08-20T21:50:02.549Z,15.53
2022-08-20T21:52:31.699Z,15.47
2022-08-20T21:54:59.261Z,15.42
2022-08-20T21:57:29.689Z,15.38
2022-08-20T21:59:58.394Z,15.33
2022-08-20T22:02:27.009Z,15.30
2022-08-20T22:04:54.914Z,15.29
2022-08-20T22:07:22.836Z,15.28
2022-08-20T22:09:51.756Z,15.27
2022-08-20T22:12:22.797Z,15.24
2022-08-20T22:14:50.578Z,15.21
2022-08-20T22:17:18.177Z,15.19
2022-08-20T22:19:45.910Z,15.17
2022-08-20T22:22:14.536Z,15.18
2022-08-20T22:24:42.769Z,15.15
2022-08-20T22:27:11.648Z,15.13
2022-08-20T22:29:39.325Z,15.11
2022-08-20T22:32:07.426Z,15.06
2022-08-20T22:34:36.657Z,15.02
2022-08-20T22:37:05.240Z,14.98
2022-08-20T22:39:33.092Z,14.93
2022-08-20T22:42:00.809Z,14.88
2022-08-20T22:44:29.786Z,14.84
2022-08-20T22:47:02.160Z,14.81
2022-08-20T22:49:33.064Z,14.76
2022-08-20T22:52:01.308Z,14.73
2022-08-20T22:54:30.193Z,14.67
2022-08-20T22:56:57.817Z,14.60
2022-08-20T22:59:25.822Z,14.55
2022-08-20T23:01:55.922Z,14.51
2022-08-20T23:04:27.785Z,14.48
2022-08-20T23:06:56.231Z,14.43
2022-08-20T23:09:23.965Z,14.37
2022-08-20T23:11:52.731Z,14.33
2022-08-20T23:14:20.741Z,14.29
2022-08-20T23:16:52.685Z,14.23
2022-08-20T23:19:23.641Z,14.15
2022-08-20T23:21:52.418Z,14.10
2022-08-20T23:24:20.881Z,14.04
2022-08-20T23:26:53.285Z,14.00
2022-08-20T23:29:25.113Z,13.93
2022-08-20T23:31:54.349Z,13.88
2022-08-20T23:34:23.343Z,13.83
2022-08-20T23:36:52.346Z,13.80
2022-08-20T23:39:20.476Z,13.78
2022-08-20T23:41:48.302Z,13.79
2022-08-20T23:44:25.840Z,13.78
2022-08-20T23:46:56.449Z,13.78
2022-08-20T23:49:25.480Z,13.75
2022-08-20T23:51:53.085Z,13.76
2022-08-20T23:54:20.657Z,13.75
2022-08-20T23:56:48.440Z,13.73
2022-08-20T23:59:16.005Z,13.72
